Aérodrome :
LOGIN :

S'inscrire | Disclaimer

   EN    FR    IT 

 










Légende :    VFR   VFR Marginal   IFR   IFR Intensif   IFR Très Intensif
Visi : 
Plafond : 
>= 8 km
>= 3000ft
5 à 8 km
1000 à 3000 ft
1500m à 5 km
500 à 1000 ft
800 à 1500m
200 à 500 ft
< 800m
< 200 ft
Symboles :   Orages  Brouillard  Fortes neiges  Fortes précipitations  Vent > 20 kt
SIGMETs :   Divers  Orages  Givrage  Turbulence  Onde Orograph.  Cendres Volcan.






- Altitude de l'aérodrome : 13 ft
- Code IATA : LYX


EGMD - Lydd

DERNIER METAR :
  • 140050Z AUTO 16020G30KT 3700 RA SCT010/// BKN015/// OVC025/// 08/06 Q0990 RERA

METARs EXPIRÉS :
  • 140020Z AUTO 14021G31KT 9999 -RA BKN014/// BKN019/// OVC030/// 08/06 Q0991
  • 132350Z AUTO 14020KT 9999 -RA BKN018/// BKN023/// OVC029/// 08/06 Q0991
  • 132320Z AUTO 15019KT 9999 BKN019/// BKN024/// OVC037/// 09/06 Q0991
  • 132250Z AUTO 15018KT 9999 BKN023/// BKN028/// 09/05 Q0992
  • 132220Z AUTO 16018KT 9999 BKN023/// BKN029/// 09/05 Q0992

TAF AMD TAF EGMD
Valide du 14 à 00h jusqu'au 14 à 09h UTC


140032Z 1400/1409 16020KT 9999 BKN025
TEMPO 1400/1409 6000 SHRA BKN014
PROB30
TEMPO 1400/1403 14022G32KT 4000 +SHRA
BECMG 1404/1406 VRB03KT
BECMG 1406/1409 20012KT
PROB30
TEMPO 1406/1409 4000 +TSGS BKN009CB
ATIS : +44 1797 322 422



MET'MAP, la Météo Aéronautique d'un coup d'oeil ! - Copyright ORBIFLY Décembre 2007 - Disclaimer

ORBIFLY MET'MAP TEAM :

Programmation & Développement : Alexandra Zaïnal
Conception & Développement : Baudouin d'Aumeries
Co-Programmation & Développement : Marc-Olivier Méhu
Soutien technique & logistique : Manuel Goepfert

Contact : metmap@orbifly.com




SOURCES & CREDITS :

   NOAA